Alexander, Maine
Current Conditions -  °F | °C
As of 1:15 PM on Thursday 27 Nov 2014 (Local Time) from KBHB Reporting Station
Overcast Overcast  
Wind Chill: 24°   Ceiling: 2100
Heat Index: 32°   Visibility: 10mi
Dew Point: 30°   Wind: 10mph
Humidity: 93%   Direction: 330°NNW
Pressure: 29.87"   Gusts: 17mph
Location:  45.0659°N, 67.4987°W
Report Text: KBHB 271815Z AUTO 33009G15KT 310V020 10SM OVC021 00/M01 A2987 RMK AO1
Loading
Personal Weather Stations






























Interactive Weather Map New forecast layout! Learn more

10-Day Weather Forecast

Advertisements
Track Severe Weather on mobile